sensor_id;sensor_type;location;lat;lon;timestamp;temperature;humidity
4908;DHT22;64375;51.540;7.364;2023-06-26T00:02:06;28.90;78.40
4908;DHT22;64375;51.540;7.364;2023-06-26T00:04:34;28.80;79.00
4908;DHT22;64375;51.540;7.364;2023-06-26T00:07:04;28.70;78.60
4908;DHT22;64375;51.540;7.364;2023-06-26T00:09:42;28.60;78.60
4908;DHT22;64375;51.540;7.364;2023-06-26T00:12:10;28.70;78.80
4908;DHT22;64375;51.540;7.364;2023-06-26T00:14:38;28.70;79.50
4908;DHT22;64375;51.540;7.364;2023-06-26T00:17:11;28.60;79.50
4908;DHT22;64375;51.540;7.364;2023-06-26T00:19:42;28.60;80.00
4908;DHT22;64375;51.540;7.364;2023-06-26T00:22:10;28.70;79.30
4908;DHT22;64375;51.540;7.364;2023-06-26T00:24:38;28.70;79.70
4908;DHT22;64375;51.540;7.364;2023-06-26T00:27:08;28.70;79.70
4908;DHT22;64375;51.540;7.364;2023-06-26T00:29:36;28.70;78.60
4908;DHT22;64375;51.540;7.364;2023-06-26T00:32:05;28.60;77.90
4908;DHT22;64375;51.540;7.364;2023-06-26T00:34:36;28.60;79.30
4908;DHT22;64375;51.540;7.364;2023-06-26T00:37:04;28.60;79.60
4908;DHT22;64375;51.540;7.364;2023-06-26T00:39:35;28.60;79.80
4908;DHT22;64375;51.540;7.364;2023-06-26T00:42:03;28.60;79.70
4908;DHT22;64375;51.540;7.364;2023-06-26T00:44:36;28.60;79.90
4908;DHT22;64375;51.540;7.364;2023-06-26T00:47:05;28.60;79.60
4908;DHT22;64375;51.540;7.364;2023-06-26T00:49:35;28.60;79.80
4908;DHT22;64375;51.540;7.364;2023-06-26T00:52:04;28.50;79.70
4908;DHT22;64375;51.540;7.364;2023-06-26T00:54:32;28.50;79.60
4908;DHT22;64375;51.540;7.364;2023-06-26T00:57:14;28.50;79.70
4908;DHT22;64375;51.540;7.364;2023-06-26T00:59:47;28.50;79.80
4908;DHT22;64375;51.540;7.364;2023-06-26T01:02:21;28.50;79.90
4908;DHT22;64375;51.540;7.364;2023-06-26T01:04:50;28.50;79.80
4908;DHT22;64375;51.540;7.364;2023-06-26T01:07:25;28.40;79.70
4908;DHT22;64375;51.540;7.364;2023-06-26T01:09:53;28.40;79.90
4908;DHT22;64375;51.540;7.364;2023-06-26T01:12:22;28.40;79.90
4908;DHT22;64375;51.540;7.364;2023-06-26T01:14:54;28.30;79.80
4908;DHT22;64375;51.540;7.364;2023-06-26T01:17:22;28.30;79.40
4908;DHT22;64375;51.540;7.364;2023-06-26T01:19:56;28.20;79.10
4908;DHT22;64375;51.540;7.364;2023-06-26T01:22:29;28.20;78.60
4908;DHT22;64375;51.540;7.364;2023-06-26T01:25:07;28.20;79.60
4908;DHT22;64375;51.540;7.364;2023-06-26T01:27:42;28.10;79.10
4908;DHT22;64375;51.540;7.364;2023-06-26T01:30:16;28.10;80.20
4908;DHT22;64375;51.540;7.364;2023-06-26T01:32:45;28.20;80.00
4908;DHT22;64375;51.540;7.364;2023-06-26T01:35:15;28.20;80.00
4908;DHT22;64375;51.540;7.364;2023-06-26T01:37:45;28.10;79.90
4908;DHT22;64375;51.540;7.364;2023-06-26T01:40:19;28.00;79.50
4908;DHT22;64375;51.540;7.364;2023-06-26T01:42:49;28.10;80.10
4908;DHT22;64375;51.540;7.364;2023-06-26T01:45:24;28.00;80.40
4908;DHT22;64375;51.540;7.364;2023-06-26T01:47:57;28.00;80.30
4908;DHT22;64375;51.540;7.364;2023-06-26T01:50:28;27.90;80.40
4908;DHT22;64375;51.540;7.364;2023-06-26T01:53:02;27.90;80.50
4908;DHT22;64375;51.540;7.364;2023-06-26T01:55:36;27.90;80.40
4908;DHT22;64375;51.540;7.364;2023-06-26T01:58:08;27.90;80.20
4908;DHT22;64375;51.540;7.364;2023-06-26T02:00:39;27.80;80.30
4908;DHT22;64375;51.540;7.364;2023-06-26T02:03:17;27.80;80.10
4908;DHT22;64375;51.540;7.364;2023-06-26T02:05:45;27.80;80.70
4908;DHT22;64375;51.540;7.364;2023-06-26T02:08:16;27.70;80.10
4908;DHT22;64375;51.540;7.364;2023-06-26T02:10:44;27.80;80.90
4908;DHT22;64375;51.540;7.364;2023-06-26T02:13:13;27.80;80.50
4908;DHT22;64375;51.540;7.364;2023-06-26T02:15:41;27.80;80.60
4908;DHT22;64375;51.540;7.364;2023-06-26T02:18:12;27.70;80.10
4908;DHT22;64375;51.540;7.364;2023-06-26T02:20:42;27.70;80.20
4908;DHT22;64375;51.540;7.364;2023-06-26T02:23:16;27.70;80.50
4908;DHT22;64375;51.540;7.364;2023-06-26T02:25:46;27.80;80.70
4908;DHT22;64375;51.540;7.364;2023-06-26T02:28:16;27.90;80.60
4908;DHT22;64375;51.540;7.364;2023-06-26T02:30:44;27.80;80.40
4908;DHT22;64375;51.540;7.364;2023-06-26T02:33:14;27.80;80.40
4908;DHT22;64375;51.540;7.364;2023-06-26T02:35:42;27.70;80.30
4908;DHT22;64375;51.540;7.364;2023-06-26T02:38:12;27.60;80.20
4908;DHT22;64375;51.540;7.364;2023-06-26T02:40:40;27.60;80.30
4908;DHT22;64375;51.540;7.364;2023-06-26T02:43:08;27.60;80.70
4908;DHT22;64375;51.540;7.364;2023-06-26T02:45:37;27.60;79.60
4908;DHT22;64375;51.540;7.364;2023-06-26T02:48:12;27.50;79.40
4908;DHT22;64375;51.540;7.364;2023-06-26T02:50:39;27.60;81.60
4908;DHT22;64375;51.540;7.364;2023-06-26T02:53:13;27.60;80.10
4908;DHT22;64375;51.540;7.364;2023-06-26T02:55:42;27.60;80.60
4908;DHT22;64375;51.540;7.364;2023-06-26T02:58:13;27.60;79.90
4908;DHT22;64375;51.540;7.364;2023-06-26T03:00:54;27.60;80.60
4908;DHT22;64375;51.540;7.364;2023-06-26T03:03:24;27.70;80.40
4908;DHT22;64375;51.540;7.364;2023-06-26T03:05:55;27.90;80.10
4908;DHT22;64375;51.540;7.364;2023-06-26T03:08:23;27.90;79.90
4908;DHT22;64375;51.540;7.364;2023-06-26T03:10:51;28.00;79.40
4908;DHT22;64375;51.540;7.364;2023-06-26T03:13:25;28.00;79.30
4908;DHT22;64375;51.540;7.364;2023-06-26T03:15:54;27.90;76.80
4908;DHT22;64375;51.540;7.364;2023-06-26T03:18:22;27.80;78.70
4908;DHT22;64375;51.540;7.364;2023-06-26T03:20:50;27.80;77.80
4908;DHT22;64375;51.540;7.364;2023-06-26T03:23:23;27.70;79.30
4908;DHT22;64375;51.540;7.364;2023-06-26T03:25:51;27.70;79.00
4908;DHT22;64375;51.540;7.364;2023-06-26T03:28:22;27.50;77.20
4908;DHT22;64375;51.540;7.364;2023-06-26T03:30:50;27.60;79.10
4908;DHT22;64375;51.540;7.364;2023-06-26T03:33:19;27.80;79.20
4908;DHT22;64375;51.540;7.364;2023-06-26T03:35:51;27.90;78.70
4908;DHT22;64375;51.540;7.364;2023-06-26T03:38:25;28.00;78.30
4908;DHT22;64375;51.540;7.364;2023-06-26T03:40:53;27.90;78.10
4908;DHT22;64375;51.540;7.364;2023-06-26T03:43:21;27.90;77.00
4908;DHT22;64375;51.540;7.364;2023-06-26T03:45:49;27.90;78.20
4908;DHT22;64375;51.540;7.364;2023-06-26T03:48:21;27.70;77.80
4908;DHT22;64375;51.540;7.364;2023-06-26T03:50:52;27.60;79.10
4908;DHT22;64375;51.540;7.364;2023-06-26T03:53:19;27.60;78.40
4908;DHT22;64375;51.540;7.364;2023-06-26T03:55:47;27.70;77.60
4908;DHT22;64375;51.540;7.364;2023-06-26T03:58:18;27.60;76.90
4908;DHT22;64375;51.540;7.364;2023-06-26T04:00:46;27.60;78.20
4908;DHT22;64375;51.540;7.364;2023-06-26T04:03:17;27.60;76.60
4908;DHT22;64375;51.540;7.364;2023-06-26T04:05:47;27.60;78.10
4908;DHT22;64375;51.540;7.364;2023-06-26T04:08:15;27.50;75.60
4908;DHT22;64375;51.540;7.364;2023-06-26T04:10:43;27.60;78.10
4908;DHT22;64375;51.540;7.364;2023-06-26T04:13:12;27.50;78.20
4908;DHT22;64375;51.540;7.364;2023-06-26T04:15:40;27.40;78.10
4908;DHT22;64375;51.540;7.364;2023-06-26T04:18:08;27.40;77.40
4908;DHT22;64375;51.540;7.364;2023-06-26T04:21:06;27.40;77.30
4908;DHT22;64375;51.540;7.364;2023-06-26T04:23:43;27.30;76.60
4908;DHT22;64375;51.540;7.364;2023-06-26T04:26:11;27.20;78.70
4908;DHT22;64375;51.540;7.364;2023-06-26T04:28:43;27.20;78.80
4908;DHT22;64375;51.540;7.364;2023-06-26T04:31:14;27.20;78.50
4908;DHT22;64375;51.540;7.364;2023-06-26T04:33:45;27.10;78.10
4908;DHT22;64375;51.540;7.364;2023-06-26T04:36:23;27.10;78.30
4908;DHT22;64375;51.540;7.364;2023-06-26T04:39:00;27.10;78.70
4908;DHT22;64375;51.540;7.364;2023-06-26T04:41:28;27.00;78.60
4908;DHT22;64375;51.540;7.364;2023-06-26T04:43:56;27.00;79.20
4908;DHT22;64375;51.540;7.364;2023-06-26T04:46:30;26.90;79.70
4908;DHT22;64375;51.540;7.364;2023-06-26T04:48:58;26.90;79.60
4908;DHT22;64375;51.540;7.364;2023-06-26T04:51:30;26.90;79.90
4908;DHT22;64375;51.540;7.364;2023-06-26T04:53:58;27.00;79.80
4908;DHT22;64375;51.540;7.364;2023-06-26T04:56:26;27.00;79.80
4908;DHT22;64375;51.540;7.364;2023-06-26T04:59:03;27.00;79.60
4908;DHT22;64375;51.540;7.364;2023-06-26T05:01:31;26.80;80.00
4908;DHT22;64375;51.540;7.364;2023-06-26T05:03:59;26.80;80.50
4908;DHT22;64375;51.540;7.364;2023-06-26T05:06:27;26.80;80.80
4908;DHT22;64375;51.540;7.364;2023-06-26T05:08:59;26.70;81.00
4908;DHT22;64375;51.540;7.364;2023-06-26T05:11:27;26.70;81.20
4908;DHT22;64375;51.540;7.364;2023-06-26T05:13:55;26.90;80.40
4908;DHT22;64375;51.540;7.364;2023-06-26T05:16:23;26.90;80.90
4908;DHT22;64375;51.540;7.364;2023-06-26T05:18:53;26.90;80.30
4908;DHT22;64375;51.540;7.364;2023-06-26T05:21:22;26.90;80.50
4908;DHT22;64375;51.540;7.364;2023-06-26T05:23:50;27.00;80.40
4908;DHT22;64375;51.540;7.364;2023-06-26T05:26:21;27.10;80.20
4908;DHT22;64375;51.540;7.364;2023-06-26T05:28:50;27.10;81.10
4908;DHT22;64375;51.540;7.364;2023-06-26T05:31:18;27.10;80.80
4908;DHT22;64375;51.540;7.364;2023-06-26T05:33:47;27.10;81.10
4908;DHT22;64375;51.540;7.364;2023-06-26T05:36:16;27.20;79.90
4908;DHT22;64375;51.540;7.364;2023-06-26T05:38:46;27.30;79.80
4908;DHT22;64375;51.540;7.364;2023-06-26T05:41:18;27.30;80.00
4908;DHT22;64375;51.540;7.364;2023-06-26T05:43:55;27.20;80.00
4908;DHT22;64375;51.540;7.364;2023-06-26T05:46:23;27.20;80.00
4908;DHT22;64375;51.540;7.364;2023-06-26T05:49:02;27.20;80.00
4908;DHT22;64375;51.540;7.364;2023-06-26T05:51:30;27.20;79.80
4908;DHT22;64375;51.540;7.364;2023-06-26T05:53:59;27.20;79.80
4908;DHT22;64375;51.540;7.364;2023-06-26T05:56:30;27.20;80.20
4908;DHT22;64375;51.540;7.364;2023-06-26T05:59:00;27.30;79.90
4908;DHT22;64375;51.540;7.364;2023-06-26T06:01:29;27.30;80.40
4908;DHT22;64375;51.540;7.364;2023-06-26T06:04:00;27.10;80.50
4908;DHT22;64375;51.540;7.364;2023-06-26T06:06:28;27.10;81.20
4908;DHT22;64375;51.540;7.364;2023-06-26T06:08:56;27.20;80.60
4908;DHT22;64375;51.540;7.364;2023-06-26T06:11:24;27.20;80.50
4908;DHT22;64375;51.540;7.364;2023-06-26T06:13:57;27.40;81.00
4908;DHT22;64375;51.540;7.364;2023-06-26T06:16:27;27.40;80.70
4908;DHT22;64375;51.540;7.364;2023-06-26T06:18:56;27.40;81.80
4908;DHT22;64375;51.540;7.364;2023-06-26T06:21:23;27.40;80.90
4908;DHT22;64375;51.540;7.364;2023-06-26T06:23:51;27.40;80.80
4908;DHT22;64375;51.540;7.364;2023-06-26T06:26:22;27.40;80.90
4908;DHT22;64375;51.540;7.364;2023-06-26T06:28:53;27.40;80.70
4908;DHT22;64375;51.540;7.364;2023-06-26T06:31:28;27.40;80.50
4908;DHT22;64375;51.540;7.364;2023-06-26T06:34:02;27.40;80.40
4908;DHT22;64375;51.540;7.364;2023-06-26T06:36:30;27.50;80.30
4908;DHT22;64375;51.540;7.364;2023-06-26T06:39:08;27.50;80.60
4908;DHT22;64375;51.540;7.364;2023-06-26T06:41:45;27.40;80.90
4908;DHT22;64375;51.540;7.364;2023-06-26T06:44:21;27.40;80.70
4908;DHT22;64375;51.540;7.364;2023-06-26T06:46:52;27.40;80.40
4908;DHT22;64375;51.540;7.364;2023-06-26T06:49:24;27.50;80.80
4908;DHT22;64375;51.540;7.364;2023-06-26T06:51:56;27.50;80.30
4908;DHT22;64375;51.540;7.364;2023-06-26T06:54:27;27.60;80.60
4908;DHT22;64375;51.540;7.364;2023-06-26T06:56:55;27.60;80.00
4908;DHT22;64375;51.540;7.364;2023-06-26T06:59:23;27.70;80.30
4908;DHT22;64375;51.540;7.364;2023-06-26T07:01:55;27.70;80.00
4908;DHT22;64375;51.540;7.364;2023-06-26T07:04:23;27.80;80.10
4908;DHT22;64375;51.540;7.364;2023-06-26T07:06:51;27.70;80.70
4908;DHT22;64375;51.540;7.364;2023-06-26T07:09:19;27.60;80.30
4908;DHT22;64375;51.540;7.364;2023-06-26T07:11:47;27.60;81.00
4908;DHT22;64375;51.540;7.364;2023-06-26T07:14:15;27.40;81.60
4908;DHT22;64375;51.540;7.364;2023-06-26T07:16:43;27.20;81.90
4908;DHT22;64375;51.540;7.364;2023-06-26T07:19:15;27.20;81.90
4908;DHT22;64375;51.540;7.364;2023-06-26T07:21:43;27.10;83.30
4908;DHT22;64375;51.540;7.364;2023-06-26T07:24:12;27.10;82.40
4908;DHT22;64375;51.540;7.364;2023-06-26T07:26:40;27.10;82.80
4908;DHT22;64375;51.540;7.364;2023-06-26T07:29:13;27.00;83.50
4908;DHT22;64375;51.540;7.364;2023-06-26T07:31:41;26.90;83.50
4908;DHT22;64375;51.540;7.364;2023-06-26T07:34:19;26.80;84.00
4908;DHT22;64375;51.540;7.364;2023-06-26T07:36:50;26.60;84.60
4908;DHT22;64375;51.540;7.364;2023-06-26T07:39:18;26.40;85.20
4908;DHT22;64375;51.540;7.364;2023-06-26T07:41:52;26.40;86.20
4908;DHT22;64375;51.540;7.364;2023-06-26T07:44:28;26.30;86.40
4908;DHT22;64375;51.540;7.364;2023-06-26T07:47:02;26.30;86.50
4908;DHT22;64375;51.540;7.364;2023-06-26T07:49:30;26.60;86.00
4908;DHT22;64375;51.540;7.364;2023-06-26T07:52:00;26.70;86.00
4908;DHT22;64375;51.540;7.364;2023-06-26T07:54:28;26.80;86.70
4908;DHT22;64375;51.540;7.364;2023-06-26T07:56:58;26.80;85.80
4908;DHT22;64375;51.540;7.364;2023-06-26T07:59:27;26.90;85.70
4908;DHT22;64375;51.540;7.364;2023-06-26T08:01:58;26.90;86.60
4908;DHT22;64375;51.540;7.364;2023-06-26T08:04:28;26.90;85.80
4908;DHT22;64375;51.540;7.364;2023-06-26T08:06:58;27.00;85.90
4908;DHT22;64375;51.540;7.364;2023-06-26T08:09:34;27.00;86.00
4908;DHT22;64375;51.540;7.364;2023-06-26T08:12:03;27.00;86.10
4908;DHT22;64375;51.540;7.364;2023-06-26T08:14:32;27.00;86.10
4908;DHT22;64375;51.540;7.364;2023-06-26T08:17:00;27.00;86.10
4908;DHT22;64375;51.540;7.364;2023-06-26T08:19:28;27.10;86.30
4908;DHT22;64375;51.540;7.364;2023-06-26T08:21:56;27.20;86.90
4908;DHT22;64375;51.540;7.364;2023-06-26T08:24:24;27.10;87.20
4908;DHT22;64375;51.540;7.364;2023-06-26T08:26:53;26.90;86.70
4908;DHT22;64375;51.540;7.364;2023-06-26T08:29:22;26.80;86.80
4908;DHT22;64375;51.540;7.364;2023-06-26T08:31:50;26.60;87.10
4908;DHT22;64375;51.540;7.364;2023-06-26T08:34:17;26.50;87.80
4908;DHT22;64375;51.540;7.364;2023-06-26T08:36:48;26.60;89.50
4908;DHT22;64375;51.540;7.364;2023-06-26T08:39:16;26.60;89.70
4908;DHT22;64375;51.540;7.364;2023-06-26T08:41:45;26.80;88.70
4908;DHT22;64375;51.540;7.364;2023-06-26T08:44:14;26.80;88.10
4908;DHT22;64375;51.540;7.364;2023-06-26T08:46:43;26.90;88.40
4908;DHT22;64375;51.540;7.364;2023-06-26T08:49:32;27.00;88.20
4908;DHT22;64375;51.540;7.364;2023-06-26T08:52:06;27.10;87.60
4908;DHT22;64375;51.540;7.364;2023-06-26T08:54:46;27.30;87.30
4908;DHT22;64375;51.540;7.364;2023-06-26T08:57:18;27.40;87.80
4908;DHT22;64375;51.540;7.364;2023-06-26T08:59:52;27.60;86.90
4908;DHT22;64375;51.540;7.364;2023-06-26T09:02:20;27.70;86.30
4908;DHT22;64375;51.540;7.364;2023-06-26T09:04:49;27.80;86.20
4908;DHT22;64375;51.540;7.364;2023-06-26T09:07:17;27.80;85.80
4908;DHT22;64375;51.540;7.364;2023-06-26T09:09:48;27.90;85.60
4908;DHT22;64375;51.540;7.364;2023-06-26T09:12:20;28.00;85.30
4908;DHT22;64375;51.540;7.364;2023-06-26T09:14:55;28.00;85.00
4908;DHT22;64375;51.540;7.364;2023-06-26T09:17:29;28.00;84.70
4908;DHT22;64375;51.540;7.364;2023-06-26T09:19:58;28.00;83.60
4908;DHT22;64375;51.540;7.364;2023-06-26T09:22:29;28.00;84.40
4908;DHT22;64375;51.540;7.364;2023-06-26T09:25:01;28.10;84.70
4908;DHT22;64375;51.540;7.364;2023-06-26T09:27:29;28.10;84.70
4908;DHT22;64375;51.540;7.364;2023-06-26T09:29:59;28.20;84.00
4908;DHT22;64375;51.540;7.364;2023-06-26T09:32:27;28.20;84.00
4908;DHT22;64375;51.540;7.364;2023-06-26T09:34:55;28.20;83.90
4908;DHT22;64375;51.540;7.364;2023-06-26T09:37:30;28.20;83.90
4908;DHT22;64375;51.540;7.364;2023-06-26T09:39:58;28.20;83.70
4908;DHT22;64375;51.540;7.364;2023-06-26T09:42:25;28.30;83.80
4908;DHT22;64375;51.540;7.364;2023-06-26T09:44:56;28.40;83.50
4908;DHT22;64375;51.540;7.364;2023-06-26T09:47:30;28.50;83.40
4908;DHT22;64375;51.540;7.364;2023-06-26T09:49:59;28.50;83.20
4908;DHT22;64375;51.540;7.364;2023-06-26T09:52:32;28.40;82.80
4908;DHT22;64375;51.540;7.364;2023-06-26T09:55:13;28.20;81.40
4908;DHT22;64375;51.540;7.364;2023-06-26T09:57:42;28.30;83.20
4908;DHT22;64375;51.540;7.364;2023-06-26T10:00:14;28.40;83.00
4908;DHT22;64375;51.540;7.364;2023-06-26T10:02:44;28.50;82.50
4908;DHT22;64375;51.540;7.364;2023-06-26T10:05:12;28.60;82.60
4908;DHT22;64375;51.540;7.364;2023-06-26T10:07:43;28.50;83.00
4908;DHT22;64375;51.540;7.364;2023-06-26T10:10:18;28.60;81.00
4908;DHT22;64375;51.540;7.364;2023-06-26T10:12:59;28.50;82.20
4908;DHT22;64375;51.540;7.364;2023-06-26T10:15:29;28.60;82.40
4908;DHT22;64375;51.540;7.364;2023-06-26T10:17:59;28.60;81.80
4908;DHT22;64375;51.540;7.364;2023-06-26T10:20:28;28.60;81.70
4908;DHT22;64375;51.540;7.364;2023-06-26T10:22:58;28.50;81.80
4908;DHT22;64375;51.540;7.364;2023-06-26T10:25:27;28.60;81.80
4908;DHT22;64375;51.540;7.364;2023-06-26T10:28:02;28.60;82.10
4908;DHT22;64375;51.540;7.364;2023-06-26T10:30:33;28.70;81.80
4908;DHT22;64375;51.540;7.364;2023-06-26T10:33:06;28.80;81.50
4908;DHT22;64375;51.540;7.364;2023-06-26T10:35:41;28.80;78.20
4908;DHT22;64375;51.540;7.364;2023-06-26T10:38:10;28.70;80.10
4908;DHT22;64375;51.540;7.364;2023-06-26T10:40:42;28.80;80.60
4908;DHT22;64375;51.540;7.364;2023-06-26T10:43:12;28.80;80.60
4908;DHT22;64375;51.540;7.364;2023-06-26T10:45:44;28.90;79.90
4908;DHT22;64375;51.540;7.364;2023-06-26T10:48:15;28.90;78.20
4908;DHT22;64375;51.540;7.364;2023-06-26T10:50:43;28.70;78.00
4908;DHT22;64375;51.540;7.364;2023-06-26T10:53:15;28.70;77.70
4908;DHT22;64375;51.540;7.364;2023-06-26T10:55:48;28.80;77.20
4908;DHT22;64375;51.540;7.364;2023-06-26T10:58:30;28.70;76.20
4908;DHT22;64375;51.540;7.364;2023-06-26T11:01:28;28.30;76.00
4908;DHT22;64375;51.540;7.364;2023-06-26T11:04:04;28.10;77.00
4908;DHT22;64375;51.540;7.364;2023-06-26T11:06:34;28.10;84.50
4908;DHT22;64375;51.540;7.364;2023-06-26T11:09:10;27.90;77.60
4908;DHT22;64375;51.540;7.364;2023-06-26T11:11:58;27.90;77.90
4908;DHT22;64375;51.540;7.364;2023-06-26T11:14:30;27.80;78.40
4908;DHT22;64375;51.540;7.364;2023-06-26T11:17:01;27.90;78.40
4908;DHT22;64375;51.540;7.364;2023-06-26T11:19:31;27.80;77.30
4908;DHT22;64375;51.540;7.364;2023-06-26T11:22:01;27.90;78.00
4908;DHT22;64375;51.540;7.364;2023-06-26T11:24:36;28.10;77.50
4908;DHT22;64375;51.540;7.364;2023-06-26T11:27:04;28.10;75.20
4908;DHT22;64375;51.540;7.364;2023-06-26T11:29:33;27.70;73.70
4908;DHT22;64375;51.540;7.364;2023-06-26T11:32:03;27.90;77.90
4908;DHT22;64375;51.540;7.364;2023-06-26T11:34:34;27.90;78.10
4908;DHT22;64375;51.540;7.364;2023-06-26T11:37:04;28.00;77.70
4908;DHT22;64375;51.540;7.364;2023-06-26T11:39:33;28.20;74.30
4908;DHT22;64375;51.540;7.364;2023-06-26T11:42:01;28.20;74.20
4908;DHT22;64375;51.540;7.364;2023-06-26T11:44:30;28.20;77.90
4908;DHT22;64375;51.540;7.364;2023-06-26T11:46:59;28.30;77.80
4908;DHT22;64375;51.540;7.364;2023-06-26T11:49:29;28.50;77.10
4908;DHT22;64375;51.540;7.364;2023-06-26T11:51:58;28.70;76.80
4908;DHT22;64375;51.540;7.364;2023-06-26T11:54:30;28.50;74.20
4908;DHT22;64375;51.540;7.364;2023-06-26T11:56:59;28.40;76.90
4908;DHT22;64375;51.540;7.364;2023-06-26T11:59:38;28.60;76.50
4908;DHT22;64375;51.540;7.364;2023-06-26T12:02:07;28.50;73.60
4908;DHT22;64375;51.540;7.364;2023-06-26T12:04:37;28.20;72.70
4908;DHT22;64375;51.540;7.364;2023-06-26T12:07:08;28.10;74.90
4908;DHT22;64375;51.540;7.364;2023-06-26T12:09:40;28.40;76.40
4908;DHT22;64375;51.540;7.364;2023-06-26T12:12:09;28.40;76.20
4908;DHT22;64375;51.540;7.364;2023-06-26T12:14:38;28.50;75.40
4908;DHT22;64375;51.540;7.364;2023-06-26T12:17:12;28.70;74.80
4908;DHT22;64375;51.540;7.364;2023-06-26T12:19:44;28.60;73.00
4908;DHT22;64375;51.540;7.364;2023-06-26T12:22:16;28.80;72.10
4908;DHT22;64375;51.540;7.364;2023-06-26T12:24:45;28.80;73.70
4908;DHT22;64375;51.540;7.364;2023-06-26T12:27:14;28.90;72.80
4908;DHT22;64375;51.540;7.364;2023-06-26T12:29:49;28.80;71.50
4908;DHT22;64375;51.540;7.364;2023-06-26T12:32:17;29.00;72.20
4908;DHT22;64375;51.540;7.364;2023-06-26T12:34:48;28.70;70.70
4908;DHT22;64375;51.540;7.364;2023-06-26T12:37:18;28.40;70.30
4908;DHT22;64375;51.540;7.364;2023-06-26T12:39:47;28.50;71.50
4908;DHT22;64375;51.540;7.364;2023-06-26T12:42:17;28.70;70.60
4908;DHT22;64375;51.540;7.364;2023-06-26T12:44:45;28.80;70.40
4908;DHT22;64375;51.540;7.364;2023-06-26T12:47:14;28.80;67.90
4908;DHT22;64375;51.540;7.364;2023-06-26T12:49:44;28.60;69.10
4908;DHT22;64375;51.540;7.364;2023-06-26T12:52:14;28.90;69.80
4908;DHT22;64375;51.540;7.364;2023-06-26T12:54:44;28.90;67.80
4908;DHT22;64375;51.540;7.364;2023-06-26T12:57:13;28.90;68.10
4908;DHT22;64375;51.540;7.364;2023-06-26T12:59:44;28.80;61.50
4908;DHT22;64375;51.540;7.364;2023-06-26T13:02:12;28.80;67.80
4908;DHT22;64375;51.540;7.364;2023-06-26T13:04:40;29.00;67.80
4908;DHT22;64375;51.540;7.364;2023-06-26T13:07:14;29.10;66.40
4908;DHT22;64375;51.540;7.364;2023-06-26T13:09:46;29.10;60.90
4908;DHT22;64375;51.540;7.364;2023-06-26T13:12:18;28.80;61.70
4908;DHT22;64375;51.540;7.364;2023-06-26T13:14:45;28.70;59.40
4908;DHT22;64375;51.540;7.364;2023-06-26T13:17:14;28.90;69.40
4908;DHT22;64375;51.540;7.364;2023-06-26T13:19:42;29.00;69.10
4908;DHT22;64375;51.540;7.364;2023-06-26T13:22:10;28.90;65.90
4908;DHT22;64375;51.540;7.364;2023-06-26T13:24:38;29.10;65.70
4908;DHT22;64375;51.540;7.364;2023-06-26T13:27:12;29.00;67.40
4908;DHT22;64375;51.540;7.364;2023-06-26T13:29:40;28.80;67.30
4908;DHT22;64375;51.540;7.364;2023-06-26T13:32:08;29.10;69.70
4908;DHT22;64375;51.540;7.364;2023-06-26T13:34:36;29.30;69.40
4908;DHT22;64375;51.540;7.364;2023-06-26T13:37:05;29.30;68.20
4908;DHT22;64375;51.540;7.364;2023-06-26T13:39:33;29.20;61.90
4908;DHT22;64375;51.540;7.364;2023-06-26T13:42:01;29.10;66.60
4908;DHT22;64375;51.540;7.364;2023-06-26T13:44:31;29.30;63.10
4908;DHT22;64375;51.540;7.364;2023-06-26T13:47:17;29.50;61.50
4908;DHT22;64375;51.540;7.364;2023-06-26T13:49:45;29.60;68.40
4908;DHT22;64375;51.540;7.364;2023-06-26T13:52:14;29.70;68.30
4908;DHT22;64375;51.540;7.364;2023-06-26T13:54:42;29.80;68.50
4908;DHT22;64375;51.540;7.364;2023-06-26T13:57:10;29.60;67.80
4908;DHT22;64375;51.540;7.364;2023-06-26T13:59:39;29.40;57.40
4908;DHT22;64375;51.540;7.364;2023-06-26T14:02:08;29.50;67.40
4908;DHT22;64375;51.540;7.364;2023-06-26T14:04:36;29.60;65.70
4908;DHT22;64375;51.540;7.364;2023-06-26T14:07:05;29.70;64.70
4908;DHT22;64375;51.540;7.364;2023-06-26T14:09:33;29.70;59.00
4908;DHT22;64375;51.540;7.364;2023-06-26T14:12:02;29.70;65.30
4908;DHT22;64375;51.540;7.364;2023-06-26T14:14:30;29.90;67.80
4908;DHT22;64375;51.540;7.364;2023-06-26T14:16:59;30.00;65.20
4908;DHT22;64375;51.540;7.364;2023-06-26T14:19:28;29.90;60.90
4908;DHT22;64375;51.540;7.364;2023-06-26T14:21:59;29.40;62.20
4908;DHT22;64375;51.540;7.364;2023-06-26T14:24:27;29.20;67.30
4908;DHT22;64375;51.540;7.364;2023-06-26T14:26:55;29.20;67.50
4908;DHT22;64375;51.540;7.364;2023-06-26T14:29:23;29.40;64.70
4908;DHT22;64375;51.540;7.364;2023-06-26T14:31:51;29.40;66.90
4908;DHT22;64375;51.540;7.364;2023-06-26T14:34:23;29.60;61.50
4908;DHT22;64375;51.540;7.364;2023-06-26T14:36:54;29.80;66.90
4908;DHT22;64375;51.540;7.364;2023-06-26T14:39:22;30.00;67.80
4908;DHT22;64375;51.540;7.364;2023-06-26T14:41:51;30.10;68.20
4908;DHT22;64375;51.540;7.364;2023-06-26T14:44:19;30.20;64.90
4908;DHT22;64375;51.540;7.364;2023-06-26T14:46:47;29.90;59.40
4908;DHT22;64375;51.540;7.364;2023-06-26T14:49:15;29.40;58.70
4908;DHT22;64375;51.540;7.364;2023-06-26T14:51:45;29.20;59.40
4908;DHT22;64375;51.540;7.364;2023-06-26T14:54:15;29.00;59.30
4908;DHT22;64375;51.540;7.364;2023-06-26T14:56:43;28.70;57.30
4908;DHT22;64375;51.540;7.364;2023-06-26T14:59:12;28.50;61.00
4908;DHT22;64375;51.540;7.364;2023-06-26T15:01:40;28.60;61.20
4908;DHT22;64375;51.540;7.364;2023-06-26T15:04:10;28.40;60.40
4908;DHT22;64375;51.540;7.364;2023-06-26T15:06:39;27.90;60.80
4908;DHT22;64375;51.540;7.364;2023-06-26T15:09:08;27.70;61.40
4908;DHT22;64375;51.540;7.364;2023-06-26T15:11:36;27.60;62.20
4908;DHT22;64375;51.540;7.364;2023-06-26T15:14:07;27.60;62.50
4908;DHT22;64375;51.540;7.364;2023-06-26T15:16:37;27.30;62.30
4908;DHT22;64375;51.540;7.364;2023-06-26T15:19:05;27.00;61.30
4908;DHT22;64375;51.540;7.364;2023-06-26T15:21:47;26.70;62.40
4908;DHT22;64375;51.540;7.364;2023-06-26T15:24:16;26.60;64.60
4908;DHT22;64375;51.540;7.364;2023-06-26T15:26:44;26.70;64.70
4908;DHT22;64375;51.540;7.364;2023-06-26T15:29:12;26.60;62.40
4908;DHT22;64375;51.540;7.364;2023-06-26T15:31:41;26.90;65.50
4908;DHT22;64375;51.540;7.364;2023-06-26T15:34:15;27.40;65.10
4908;DHT22;64375;51.540;7.364;2023-06-26T15:36:43;27.60;64.10
4908;DHT22;64375;51.540;7.364;2023-06-26T15:39:11;27.70;62.20
4908;DHT22;64375;51.540;7.364;2023-06-26T15:41:40;27.70;63.40
4908;DHT22;64375;51.540;7.364;2023-06-26T15:44:11;28.00;63.90
4908;DHT22;64375;51.540;7.364;2023-06-26T15:46:43;28.40;60.30
4908;DHT22;64375;51.540;7.364;2023-06-26T15:49:13;28.30;64.30
4908;DHT22;64375;51.540;7.364;2023-06-26T15:51:45;28.40;60.20
4908;DHT22;64375;51.540;7.364;2023-06-26T15:54:14;28.30;61.10
4908;DHT22;64375;51.540;7.364;2023-06-26T15:56:43;28.10;59.40
4908;DHT22;64375;51.540;7.364;2023-06-26T15:59:13;28.20;64.10
4908;DHT22;64375;51.540;7.364;2023-06-26T16:01:45;28.50;65.00
4908;DHT22;64375;51.540;7.364;2023-06-26T16:04:15;28.80;61.10
4908;DHT22;64375;51.540;7.364;2023-06-26T16:06:43;28.90;61.10